PWSweather.com
Personal Weather Stations
Station Observations
BALTRELAY
Relay, Baltimore, MD 21227

RelayBaltimore, MD 21227

Lat: 39.24588, Lon: -76.719772

Elevation: 221

Station Type: Davis Vantage Pro2 (6153)

http://www.relayweather.com

Latest ConditionsUpdated 2:50:03 AM GMT Tuesday, Dec 23, 2014
Currently Today's Max Today's Min Today's Average
Temperature 36.9°F2.7°C 36.9°F2.7°C 35.1°F1.7°C 35.9°F2.2°C
Dew Point 35.6°F2.0°C 35.6°F2.0°C 33.5°F0.8°C 34.4°F1.3°C
Winds 3.0 mph NNE4.8 kmh NNE 6.1 mph N9.8 kmh N - 3.1 mph 5.0 kmh
Wind Gusts 9.1 mph14.6 kmh 11.1 mph17.9 kmh - -
Humidity 95% 95% 94% 94%
Pressure 30.11 in1019.6 mb 30.17 in1021.7 mb 30.11 in1019.6 mb -
Precipitation - 0.21 in5.3 mm - -
Hour Temp Dew Point Humidity Winds Wind Gusts Pressure Precip Precip Rate Daily Precip Total
02:50 AM 36.9°F2.7°C 35.6°F2.0°C 95% 3.0 mph NNE4.8 kmh NNE 9.1 mph14.6 kmh 30.11 in1019.6 mb 0.00 in0.0 mm 0.00 in/hr0.0 mm/hr 0.21 in5.3 mm
02:45 AM 36.8°F2.7°C 35.5°F1.9°C 95% 4.1 mph N6.6 kmh N 6.1 mph9.8 kmh 30.11 in1019.6 mb 0.00 in0.0 mm 0.00 in/hr0.0 mm/hr 0.21 in5.3 mm
02:40 AM 36.7°F2.6°C 35.4°F1.9°C 95% 5.2 mph N8.4 kmh N 8.1 mph13.0 kmh 30.11 in1019.6 mb 0.00 in0.0 mm 0.00 in/hr0.0 mm/hr 0.21 in5.3 mm
02:30 AM 36.4°F2.4°C 35.2°F1.8°C 95% 3.3 mph NNE5.3 kmh NNE 10.1 mph16.3 kmh 30.11 in1019.6 mb 0.00 in0.0 mm 0.00 in/hr0.0 mm/hr 0.21 in5.3 mm
02:20 AM 36.2°F2.3°C 34.9°F1.6°C 95% 3.4 mph NNE5.5 kmh NNE 5.0 mph8.0 kmh 30.12 in1020.0 mb 0.00 in0.0 mm 0.00 in/hr0.0 mm/hr 0.21 in5.3 mm
02:15 AM 36.2°F2.3°C 34.9°F1.6°C 95% 5.7 mph N9.2 kmh N 6.1 mph9.8 kmh 30.12 in1020.0 mb 0.00 in0.0 mm 0.00 in/hr0.0 mm/hr 0.21 in5.3 mm
02:10 AM 36.1°F2.3°C 34.8°F1.6°C 95% 4.5 mph N7.2 kmh N 11.1 mph17.9 kmh 30.12 in1020.0 mb 0.00 in0.0 mm 0.00 in/hr0.0 mm/hr 0.21 in5.3 mm
02:00 AM 36.1°F2.3°C 34.8°F1.6°C 95% 5.4 mph NNW8.7 kmh NNW 6.1 mph9.8 kmh 30.13 in1020.3 mb 0.00 in0.0 mm 0.00 in/hr0.0 mm/hr 0.21 in5.3 mm
01:50 AM 36.0°F2.2°C 34.7°F1.5°C 95% 3.2 mph N5.1 kmh N 7.1 mph11.4 kmh 30.13 in1020.3 mb 0.00 in0.0 mm 0.00 in/hr0.0 mm/hr 0.21 in5.3 mm
01:45 AM 35.9°F2.2°C 34.3°F1.3°C 94% 4.2 mph 6.8 kmh 8.1 mph13.0 kmh 30.15 in1021.0 mb 0.01 in0.3 mm 0.12 in/hr3.0 mm/hr 0.21 in5.3 mm
01:40 AM 35.8°F2.1°C 34.3°F1.3°C 94% Calm Calm 4.0 mph6.4 kmh 30.15 in1021.0 mb 0.00 in0.0 mm 0.00 in/hr0.0 mm/hr 0.20 in5.1 mm
01:30 AM 35.9°F2.2°C 34.3°F1.3°C 94% 1.9 mph NW3.1 kmh NW 3.0 mph4.8 kmh 30.15 in1021.0 mb 0.00 in0.0 mm 0.00 in/hr0.0 mm/hr 0.20 in5.1 mm
01:20 AM 36.0°F2.2°C 34.4°F1.3°C 94% 2.2 mph NW3.5 kmh NW 2.0 mph3.2 kmh 30.16 in1021.3 mb 0.00 in0.0 mm 0.00 in/hr0.0 mm/hr 0.20 in5.1 mm
01:15 AM 36.0°F2.2°C 34.4°F1.3°C 94% 1.3 mph WNW2.1 kmh WNW 5.0 mph8.0 kmh 30.16 in1021.3 mb 0.01 in0.3 mm 0.12 in/hr3.0 mm/hr 0.20 in5.1 mm
01:10 AM 36.1°F2.3°C 34.5°F1.4°C 94% 3.9 mph NW6.3 kmh NW 5.0 mph8.0 kmh 30.15 in1021.0 mb 0.03 in0.8 mm 0.18 in/hr4.6 mm/hr 0.19 in4.8 mm
01:00 AM 36.0°F2.2°C 34.4°F1.3°C 94% 0.4 mph WNW0.6 kmh WNW 5.0 mph8.0 kmh 30.17 in1021.7 mb 0.00 in0.0 mm 0.00 in/hr0.0 mm/hr 0.16 in4.1 mm
12:50 AM 35.7°F2.1°C 34.1°F1.2°C 94% 4.5 mph NW7.2 kmh NW 6.1 mph9.8 kmh 30.14 in1020.7 mb 0.00 in0.0 mm 0.00 in/hr0.0 mm/hr 0.16 in4.1 mm
12:45 AM 35.6°F2.0°C 34.0°F1.1°C 94% 1.0 mph NW1.6 kmh NW 4.0 mph6.4 kmh 30.14 in1020.7 mb 0.00 in0.0 mm 0.00 in/hr0.0 mm/hr 0.16 in4.1 mm
12:40 AM 35.5°F1.9°C 33.9°F1.1°C 94% 4.7 mph NW7.6 kmh NW 6.1 mph9.8 kmh 30.14 in1020.7 mb 0.00 in0.0 mm 0.00 in/hr0.0 mm/hr 0.16 in4.1 mm
12:30 AM 35.4°F1.9°C 33.8°F1.0°C 94% 6.1 mph N9.8 kmh N 9.1 mph14.6 kmh 30.14 in1020.7 mb 0.00 in0.0 mm 0.00 in/hr0.0 mm/hr 0.16 in4.1 mm
12:20 AM 35.3°F1.8°C 33.7°F0.9°C 94% 3.7 mph N6.0 kmh N 6.1 mph9.8 kmh 30.14 in1020.7 mb 0.01 in0.3 mm 0.12 in/hr3.0 mm/hr 0.16 in4.1 mm
12:15 AM 35.3°F1.8°C 33.7°F0.9°C 94% 0.9 mph NNW1.4 kmh NNW 6.1 mph9.8 kmh 30.15 in1021.0 mb 0.01 in0.3 mm 0.12 in/hr3.0 mm/hr 0.16 in4.1 mm
12:10 AM 35.2°F1.8°C 33.6°F0.9°C 94% 0.9 mph NW1.4 kmh NW -- 30.15 in1021.0 mb 0.01 in0.3 mm 0.06 in/hr1.5 mm/hr 0.15 in3.8 mm
12:00 AM 35.1°F1.7°C 33.5°F0.8°C 94% 1.7 mph NNW2.7 kmh NNW 5.0 mph8.0 kmh 30.15 in1021.0 mb 0.00 in0.0 mm 0.00 in/hr0.0 mm/hr 0.14 in3.6 mm